Time;durP1;ratioP1;P1;durP2;ratioP2;P2;SDS_P1;SDS_P2;PMS_P1;PMS_P2;Temp;Humidity;BMP_temperature;BMP_pressure;BME280_temperature;BME280_humidity;BME280_pressure;Samples;Min_cycle;Max_cycle;Signal;HPM_P1;HPM_P2
2022/06/11 00:01:35;;;;;;;7.87;4.85;;;;;;;19.87;100.00;152647.70;1716814;83;21014;-57
2022/06/11 00:04:06;;;;;;;5.60;4.13;;;;;;;19.72;100.00;152611.12;1717084;83;21058;-58
2022/06/11 00:06:37;;;;;;;5.70;4.60;;;;;;;19.72;100.00;152611.12;1716782;83;21445;-56
2022/06/11 00:09:05;;;;;;;5.22;4.65;;;;;;;19.67;100.00;152598.08;1716766;83;21025;-57
2022/06/11 00:11:32;;;;;;;6.67;4.60;;;;;;;19.67;100.00;152596.75;1716790;83;21507;-57
2022/06/11 00:14:01;;;;;;;5.28;4.03;;;;;;;19.65;100.00;152592.86;1716748;83;21486;-58
2022/06/11 00:16:28;;;;;;;7.75;4.67;;;;;;;19.65;100.00;152592.86;1716858;83;21070;-58
2022/06/11 00:18:55;;;;;;;5.22;4.22;;;;;;;19.66;100.00;152595.47;1716841;83;21061;-57
2022/06/11 00:21:25;;;;;;;8.13;4.35;;;;;;;19.69;100.00;152602.02;1716729;83;21081;-57
2022/06/11 00:23:52;;;;;;;7.72;4.78;;;;;;;19.72;100.00;152611.12;1716711;83;21201;-58
2022/06/11 00:26:20;;;;;;;5.72;4.50;;;;;;;19.72;100.00;152611.12;1716680;83;21088;-57
2022/06/11 00:28:49;;;;;;;7.12;4.30;;;;;;;19.70;100.00;152605.91;1716926;83;21010;-57
2022/06/11 00:31:17;;;;;;;5.53;4.60;;;;;;;19.70;100.00;152605.91;1716969;83;21089;-57
2022/06/11 00:33:43;;;;;;;5.03;4.47;;;;;;;19.72;100.00;152611.12;1716846;83;21093;-58
2022/06/11 00:36:11;;;;;;;4.67;4.17;;;;;;;19.78;100.00;152624.17;1716879;83;21260;-56
2022/06/11 00:38:38;;;;;;;5.90;3.80;;;;;;;19.83;100.00;152637.28;1716995;83;21455;-58
2022/06/11 00:41:05;;;;;;;6.45;5.10;;;;;;;19.87;100.00;152647.70;1717078;83;21001;-58
2022/06/11 00:43:32;;;;;;;5.45;4.50;;;;;;;19.89;100.00;152652.92;1717317;83;21552;-58
2022/06/11 00:46:33;;;;;;;6.03;4.37;;;;;;;19.93;100.00;152663.41;1716953;83;21022;-58
2022/06/11 00:49:01;;;;;;;7.03;4.25;;;;;;;19.98;100.00;152676.47;1695152;83;21498;-58
2022/06/11 00:51:31;;;;;;;5.17;4.20;;;;;;;20.02;100.00;152686.95;1716822;83;21025;-57
2022/06/11 00:54:01;;;;;;;7.35;4.22;;;;;;;20.04;100.00;152690.84;1697006;83;21557;-57
2022/06/11 00:56:35;;;;;;;4.80;4.05;;;;;;;20.07;100.00;152697.39;1716894;83;21054;-58
2022/06/11 00:59:07;;;;;;;6.45;4.15;;;;;;;20.07;100.00;152697.39;1717078;83;21048;-58
2022/06/11 01:01:34;;;;;;;4.92;3.95;;;;;;;20.04;100.00;152690.84;1717129;83;21194;-57
2022/06/11 01:04:03;;;;;;;5.15;4.30;;;;;;;20.04;100.00;152692.17;1716861;83;21513;-57
2022/06/11 01:06:51;;;;;;;6.55;4.15;;;;;;;20.04;100.00;152692.17;1716804;83;21533;-58
2022/06/11 01:09:40;;;;;;;6.70;4.55;;;;;;;20.04;100.00;152692.17;1716588;83;20977;-57
2022/06/11 01:12:34;;;;;;;6.58;4.20;;;;;;;20.06;100.00;152696.06;1716830;83;21140;-57
2022/06/11 01:15:18;;;;;;;5.47;4.25;;;;;;;20.11;100.00;152707.83;1704740;83;21234;-57
2022/06/11 01:18:08;;;;;;;5.47;4.03;;;;;;;20.07;100.00;152697.39;1716627;83;21056;-56
2022/06/11 01:21:02;;;;;;;5.78;4.28;;;;;;;20.04;100.00;152692.17;1716772;83;21101;-57
2022/06/11 01:24:14;;;;;;;4.55;4.10;;;;;;;20.06;100.00;152694.78;1716651;83;21326;-57
2022/06/11 01:27:04;;;;;;;6.55;4.17;;;;;;;20.03;100.00;152689.56;1716616;83;21053;-58
2022/06/11 01:29:48;;;;;;;5.05;4.55;;;;;;;20.02;100.00;152686.95;1715569;83;21275;-58
2022/06/11 01:32:23;;;;;;;8.40;4.50;;;;;;;20.05;100.00;152693.45;1716724;83;21479;-58
2022/06/11 01:35:14;;;;;;;10.63;4.65;;;;;;;20.04;100.00;152692.17;1665268;83;21061;-58
2022/06/11 01:38:17;;;;;;;8.68;4.42;;;;;;;20.03;100.00;152689.56;1716854;83;21025;-64
2022/06/11 01:41:24;;;;;;;5.17;3.92;;;;;;;20.04;100.00;152692.17;1716831;83;21013;-64
2022/06/11 01:43:55;;;;;;;5.47;3.70;;;;;;;20.02;100.00;152686.95;1717148;83;21252;-64
2022/06/11 01:46:36;;;;;;;7.20;4.33;;;;;;;19.98;100.00;152676.47;1696646;83;20954;-63
2022/06/11 01:49:23;;;;;;;5.47;4.85;;;;;;;19.96;100.00;152671.25;1716887;83;21006;-57
2022/06/11 01:52:08;;;;;;;6.35;5.28;;;;;;;19.90;100.00;152655.53;1716603;83;20982;-57
2022/06/11 01:55:08;;;;;;;10.07;6.17;;;;;;;19.87;100.00;152647.70;1717102;83;21009;-58
2022/06/11 01:58:03;;;;;;;8.38;6.33;;;;;;;19.83;100.00;152637.28;1716782;83;21902;-59
2022/06/11 02:00:34;;;;;;;6.15;5.55;;;;;;;19.80;100.00;152630.72;1716886;83;21092;-58
2022/06/11 02:03:39;;;;;;;8.18;6.25;;;;;;;19.75;100.00;152617.67;1717262;83;21096;-58
2022/06/11 02:06:33;;;;;;;7.65;6.05;;;;;;;19.73;100.00;152612.45;1716889;83;21050;-65
2022/06/11 02:09:12;;;;;;;9.53;6.08;;;;;;;19.78;100.00;152624.17;1716417;83;21008;-66
2022/06/11 02:11:49;;;;;;;7.85;5.50;;;;;;;19.79;100.00;152628.11;1716864;83;21231;-65
2022/06/11 02:14:29;;;;;;;6.42;5.35;;;;;;;19.83;100.00;152638.56;1716718;83;20994;-65
2022/06/11 02:17:03;;;;;;;6.67;5.12;;;;;;;19.85;100.00;152643.77;1716667;83;21004;-64
2022/06/11 02:19:36;;;;;;;6.55;5.22;;;;;;;19.89;100.00;152652.92;1712590;83;21593;-64
2022/06/11 02:22:08;;;;;;;7.60;5.87;;;;;;;19.94;100.00;152666.03;1717128;83;21092;-64
2022/06/11 02:24:44;;;;;;;7.03;5.45;;;;;;;19.99;100.00;152679.08;1716796;83;21094;-65
2022/06/11 02:27:15;;;;;;;9.30;5.90;;;;;;;20.06;100.00;152694.78;1716769;83;21547;-64
2022/06/11 02:29:42;;;;;;;6.42;5.53;;;;;;;20.12;100.00;152711.77;1716861;83;21492;-65
2022/06/11 02:32:13;;;;;;;10.15;5.15;;;;;;;20.29;100.00;152753.53;1716925;83;21132;-65
2022/06/11 02:34:45;;;;;;;7.95;5.10;;;;;;;20.45;100.00;152794.06;1716785;83;21084;-65
2022/06/11 02:37:32;;;;;;;4.45;3.98;;;;;;;20.57;100.00;152825.39;1716768;83;21478;-65
2022/06/11 02:40:11;;;;;;;4.15;3.75;;;;;;;20.68;100.00;152851.55;1716757;83;21524;-66
2022/06/11 02:42:38;;;;;;;5.55;3.72;;;;;;;20.82;100.00;152888.16;1714992;83;21052;-66
2022/06/11 02:45:07;;;;;;;6.30;4.10;;;;;;;20.88;100.00;152902.53;1716762;83;21128;-65
2022/06/11 02:47:34;;;;;;;6.35;4.05;;;;;;;20.93;100.00;152914.31;1716893;83;21503;-65
2022/06/11 02:50:00;;;;;;;6.28;4.17;;;;;;;20.99;100.00;152929.98;1716780;83;22080;-64
2022/06/11 02:52:29;;;;;;;10.85;5.03;;;;;;;21.04;100.00;152943.05;1716507;83;21124;-66
2022/06/11 02:54:56;;;;;;;6.58;4.90;;;;;;;21.09;100.00;152956.09;1716579;83;21001;-65
2022/06/11 02:57:26;;;;;;;6.83;5.17;;;;;;;21.11;100.00;152961.38;1716299;83;20969;-65
2022/06/11 02:59:54;;;;;;;5.80;5.25;;;;;;;21.15;100.00;152971.81;1716680;83;21069;-66
2022/06/11 03:02:22;;;;;;;6.47;5.35;;;;;;;21.24;99.64;152994.05;1716765;83;21287;-66
2022/06/11 03:04:49;;;;;;;6.58;4.85;;;;;;;21.28;99.33;153003.16;1716705;83;21487;-65
2022/06/11 03:07:16;;;;;;;10.38;4.78;;;;;;;21.37;99.12;153026.72;1715747;83;21008;-64
2022/06/11 03:09:43;;;;;;;5.47;4.75;;;;;;;21.43;98.24;153042.39;1707357;83;21049;-65
2022/06/11 03:12:11;;;;;;;6.50;5.08;;;;;;;21.44;97.59;153045.00;1707384;83;21085;-65
2022/06/11 03:14:41;;;;;;;6.87;4.78;;;;;;;21.45;97.19;153047.61;1707805;84;21503;-65
2022/06/11 03:17:10;;;;;;;7.83;4.08;;;;;;;21.50;97.16;153059.39;1707348;83;21102;-66
2022/06/11 03:19:36;;;;;;;7.00;3.83;;;;;;;21.57;96.73;153076.39;1707412;83;21026;-65
2022/06/11 03:22:05;;;;;;;4.28;3.45;;;;;;;21.64;96.08;153094.69;1707363;83;21062;-66
2022/06/11 03:24:33;;;;;;;3.90;3.52;;;;;;;21.79;95.52;153132.64;1707324;84;21435;-66
2022/06/11 03:27:00;;;;;;;3.05;2.75;;;;;;;21.97;95.06;153178.39;1707160;83;21131;-66
2022/06/11 03:29:27;;;;;;;6.50;2.67;;;;;;;22.17;93.56;153229.41;1707331;84;21045;-66
2022/06/11 03:31:54;;;;;;;5.45;2.67;;;;;;;22.32;92.24;153267.33;1707488;83;21031;-65
2022/06/11 03:34:21;;;;;;;4.40;2.65;;;;;;;22.46;90.50;153301.36;1707483;84;21699;-66
2022/06/11 03:36:52;;;;;;;5.45;2.80;;;;;;;22.57;89.41;153330.16;1707349;84;21018;-67
2022/06/11 03:39:19;;;;;;;4.53;2.50;;;;;;;22.66;88.63;153351.08;1707432;83;21207;-66
2022/06/11 03:41:47;;;;;;;5.05;3.10;;;;;;;22.77;87.79;153378.55;1707349;84;21408;-66
2022/06/11 03:44:16;;;;;;;2.60;2.05;;;;;;;22.86;86.98;153403.41;1707251;83;21093;-66
2022/06/11 03:46:44;;;;;;;4.10;2.60;;;;;;;22.93;85.84;153420.42;1707213;83;21015;-66
2022/06/11 03:49:11;;;;;;;5.92;2.60;;;;;;;22.99;85.27;153434.83;1707221;84;21018;-66
2022/06/11 03:51:38;;;;;;;4.87;2.75;;;;;;;23.07;84.50;153455.75;1707183;83;21235;-66
2022/06/11 03:54:07;;;;;;;3.83;2.40;;;;;;;23.17;84.06;153481.94;1707266;84;21471;-66
2022/06/11 03:56:36;;;;;;;3.20;2.40;;;;;;;23.29;83.52;153512.09;1707220;83;21494;-66
2022/06/11 03:59:03;;;;;;;3.45;2.42;;;;;;;23.41;82.88;153540.86;1707299;84;21070;-66
2022/06/11 04:01:30;;;;;;;3.75;2.42;;;;;;;23.46;82.00;153555.27;1707377;83;21636;-65
2022/06/11 04:03:59;;;;;;;4.47;2.40;;;;;;;23.49;81.38;153560.50;1707244;84;21625;-65
2022/06/11 04:06:34;;;;;;;3.02;2.30;;;;;;;23.51;81.08;153565.72;1707173;83;21058;-66
2022/06/11 04:09:01;;;;;;;5.80;2.25;;;;;;;23.53;80.69;153570.95;1707178;83;21010;-64
2022/06/11 04:11:30;;;;;;;4.33;2.30;;;;;;;23.55;80.26;153576.23;1707243;83;21050;-66
2022/06/11 04:13:57;;;;;;;2.92;2.15;;;;;;;23.55;79.96;153576.23;1707427;83;21423;-65
2022/06/11 04:16:31;;;;;;;4.12;2.45;;;;;;;23.62;79.73;153594.55;1707415;83;21244;-65
2022/06/11 04:19:00;;;;;;;6.00;2.37;;;;;;;23.74;79.39;153625.94;1707494;83;21038;-64
2022/06/11 04:21:28;;;;;;;2.40;2.05;;;;;;;23.89;78.97;153663.94;1688085;84;21041;-65
2022/06/11 04:23:56;;;;;;;3.47;2.25;;;;;;;24.05;78.58;153703.23;1707371;83;21451;-65
2022/06/11 04:26:29;;;;;;;3.40;2.27;;;;;;;24.14;77.82;153726.83;1707372;84;21030;-66
2022/06/11 04:28:56;;;;;;;2.87;2.05;;;;;;;24.22;76.80;153746.47;1707460;84;21915;-66
2022/06/11 04:31:23;;;;;;;2.87;2.33;;;;;;;24.31;75.98;153768.69;1707393;84;21057;-66
2022/06/11 04:33:50;;;;;;;4.85;2.10;;;;;;;24.42;75.64;153797.53;1707344;84;20935;-66
2022/06/11 04:36:20;;;;;;;3.58;2.17;;;;;;;24.56;75.30;153832.87;1707286;84;21050;-66
2022/06/11 04:38:47;;;;;;;4.45;2.35;;;;;;;24.67;74.76;153859.09;1707323;83;20998;-65
2022/06/11 04:41:15;;;;;;;4.65;2.20;;;;;;;24.74;73.67;153878.70;1707406;84;21258;-64
2022/06/11 04:43:43;;;;;;;2.58;1.95;;;;;;;24.80;72.90;153893.17;1707202;84;21510;-65
2022/06/11 04:46:10;;;;;;;2.12;1.92;;;;;;;24.85;72.56;153906.25;1707268;84;20971;-65
2022/06/11 04:48:37;;;;;;;3.20;2.05;;;;;;;24.92;71.92;153922.02;1707163;84;21006;-65
2022/06/11 04:51:05;;;;;;;4.33;2.62;;;;;;;24.95;71.39;153929.86;1707151;83;21015;-65
2022/06/11 04:53:32;;;;;;;2.85;2.02;;;;;;;24.96;70.60;153933.77;1707322;83;21017;-65
2022/06/11 04:56:00;;;;;;;4.97;2.30;;;;;;;25.01;70.84;153945.56;1707321;83;21117;-65
2022/06/11 04:58:27;;;;;;;2.98;2.00;;;;;;;25.02;70.12;153948.19;1707076;83;21006;-66
2022/06/11 05:00:55;;;;;;;2.58;1.92;;;;;;;25.01;70.69;153945.56;1707380;83;21412;-66
2022/06/11 05:03:22;;;;;;;5.40;1.90;;;;;;;25.02;70.25;153948.19;1707434;83;21577;-66
2022/06/11 05:05:50;;;;;;;5.58;2.08;;;;;;;24.98;69.89;153939.05;1707473;84;21899;-66
2022/06/11 05:08:18;;;;;;;3.17;1.85;;;;;;;25.00;69.65;153942.95;1708075;83;21113;-66
2022/06/11 05:10:47;;;;;;;2.92;2.00;;;;;;;25.05;69.89;153956.03;1712031;83;21089;-66
2022/06/11 05:13:14;;;;;;;4.83;2.05;;;;;;;25.13;69.44;153977.03;1712229;83;21011;-65
2022/06/11 05:15:45;;;;;;;4.37;1.95;;;;;;;25.24;68.84;154003.22;1712265;83;21551;-65
2022/06/11 05:18:13;;;;;;;2.33;1.95;;;;;;;25.23;68.59;154000.59;1712264;83;21502;-66
2022/06/11 05:20:41;;;;;;;2.80;1.90;;;;;;;25.21;68.19;153995.36;1712209;83;21058;-66
2022/06/11 05:23:08;;;;;;;4.58;1.67;;;;;;;25.26;68.67;154008.45;1712433;83;20930;-66
2022/06/11 05:25:38;;;;;;;3.55;2.12;;;;;;;25.28;68.10;154013.69;1712455;83;21538;-66
2022/06/11 05:28:07;;;;;;;6.40;1.82;;;;;;;25.27;67.73;154012.41;1712244;83;20938;-66
2022/06/11 05:30:35;;;;;;;4.25;2.20;;;;;;;25.29;68.10;154017.64;1712238;83;21753;-65
2022/06/11 05:33:02;;;;;;;2.37;1.90;;;;;;;25.36;68.27;154034.67;1712265;83;20993;-66
2022/06/11 05:35:31;;;;;;;4.65;1.70;;;;;;;25.38;67.16;154038.58;1712386;83;21018;-66
2022/06/11 05:38:00;;;;;;;2.83;1.80;;;;;;;25.38;66.50;154039.91;1712285;83;21513;-66
2022/06/11 05:40:31;;;;;;;1.95;1.70;;;;;;;25.41;66.62;154046.44;1712587;83;21022;-65
2022/06/11 05:42:58;;;;;;;4.22;2.08;;;;;;;25.46;67.07;154060.86;1712571;83;21463;-66
2022/06/11 05:45:49;;;;;;;3.05;2.10;;;;;;;25.54;67.01;154079.28;1712442;83;20977;-66
2022/06/11 05:48:18;;;;;;;3.00;1.72;;;;;;;25.62;66.35;154100.23;1712072;83;21065;-65
2022/06/11 05:50:49;;;;;;;3.47;2.02;;;;;;;25.75;66.19;154133.00;1712168;83;21061;-66
2022/06/11 05:53:18;;;;;;;2.85;1.57;;;;;;;25.81;65.72;154147.42;1712035;83;20958;-65
2022/06/11 05:55:47;;;;;;;5.80;2.40;;;;;;;25.73;65.49;154129.05;1711922;83;21535;-66
2022/06/11 05:58:22;;;;;;;2.77;1.87;;;;;;;25.74;65.58;154131.66;1711453;83;20954;-66
2022/06/11 06:00:50;;;;;;;3.95;2.05;;;;;;;25.81;64.41;154148.70;1712200;83;21058;-66
2022/06/11 06:03:17;;;;;;;2.72;2.08;;;;;;;25.82;64.38;154150.03;1712191;83;20995;-65
2022/06/11 06:05:44;;;;;;;4.20;1.98;;;;;;;25.83;64.19;154152.66;1712238;83;21021;-65
2022/06/11 06:08:11;;;;;;;2.55;1.92;;;;;;;25.83;64.31;154152.66;1712715;83;21335;-66
2022/06/11 06:10:40;;;;;;;2.42;1.87;;;;;;;25.88;64.68;154167.09;1716918;83;21006;-65
2022/06/11 06:13:45;;;;;;;4.72;1.85;;;;;;;25.99;64.48;154194.61;1716848;83;20970;-65
2022/06/11 06:15:37;;;;;;;3.95;2.25;;;;;;;26.10;64.58;154220.81;1713892;83;21077;-65
2022/06/11 06:18:05;;;;;;;3.12;1.90;;;;;;;26.22;64.02;154252.34;1716808;83;21022;-65
2022/06/11 06:20:33;;;;;;;3.22;2.00;;;;;;;26.27;63.25;154265.44;1717004;83;21626;-65
2022/06/11 06:23:01;;;;;;;4.12;2.00;;;;;;;26.24;62.71;154257.58;1716952;83;21021;-65
2022/06/11 06:25:28;;;;;;;2.67;1.75;;;;;;;26.21;63.17;154249.72;1716936;83;21073;-65
2022/06/11 06:27:55;;;;;;;3.02;1.98;;;;;;;26.21;63.60;154248.38;1716737;83;21504;-65
2022/06/11 06:30:22;;;;;;;4.65;1.92;;;;;;;26.22;63.56;154251.00;1716950;83;22345;-64
2022/06/11 06:32:49;;;;;;;3.70;1.98;;;;;;;26.23;63.43;154254.95;1716823;83;21432;-65
2022/06/11 06:35:16;;;;;;;2.42;1.80;;;;;;;26.26;63.39;154261.48;1716779;83;20986;-65
2022/06/11 06:37:43;;;;;;;3.70;1.70;;;;;;;26.26;63.21;154262.81;1716736;83;21506;-65
2022/06/11 06:40:12;;;;;;;3.62;1.82;;;;;;;26.31;63.26;154274.63;1716794;83;21474;-65
2022/06/11 06:42:40;;;;;;;3.45;1.87;;;;;;;26.42;62.39;154302.16;1716818;83;21164;-64
2022/06/11 06:45:08;;;;;;;3.12;2.00;;;;;;;26.43;61.25;154304.78;1716824;83;21259;-65
2022/06/11 06:47:37;;;;;;;3.55;1.95;;;;;;;26.43;61.09;154304.78;1716740;83;20978;-64
2022/06/11 06:50:06;;;;;;;2.58;1.82;;;;;;;26.48;61.09;154317.87;1716735;83;21025;-65
2022/06/11 06:52:32;;;;;;;3.95;2.10;;;;;;;26.52;60.98;154328.36;1717008;83;21049;-65
2022/06/11 06:55:00;;;;;;;3.35;1.87;;;;;;;26.44;60.82;154307.41;1716945;83;21775;-65
2022/06/11 06:57:26;;;;;;;3.45;2.10;;;;;;;26.38;61.56;154292.97;1716585;83;20954;-65
2022/06/11 06:59:54;;;;;;;3.45;1.87;;;;;;;26.40;60.70;154296.88;1716713;83;21041;-65
2022/06/11 07:02:20;;;;;;;3.35;2.00;;;;;;;26.40;60.18;154296.88;1716887;83;21057;-65
2022/06/11 07:04:47;;;;;;;5.53;1.98;;;;;;;26.40;60.23;154296.88;1716742;83;21443;-65
2022/06/11 07:07:15;;;;;;;3.17;2.08;;;;;;;26.38;60.34;154292.97;1716959;83;21038;-65
2022/06/11 07:09:42;;;;;;;2.55;2.00;;;;;;;26.40;61.13;154296.88;1711093;83;21212;-64
2022/06/11 07:12:10;;;;;;;5.20;2.27;;;;;;;26.30;61.88;154273.30;1707334;84;20959;-65
2022/06/11 07:14:38;;;;;;;2.27;1.62;;;;;;;26.23;62.59;154254.95;1707437;83;21029;-65
2022/06/11 07:17:06;;;;;;;3.85;2.00;;;;;;;26.21;63.10;154248.38;1707433;83;21010;-64
2022/06/11 07:19:39;;;;;;;4.42;1.87;;;;;;;26.18;63.54;154241.81;1707461;84;21451;-64
2022/06/11 07:22:10;;;;;;;2.62;1.80;;;;;;;26.24;63.18;154257.58;1706504;83;21419;-65
2022/06/11 07:24:37;;;;;;;2.70;1.90;;;;;;;26.28;62.85;154268.06;1707996;83;21429;-65
2022/06/11 07:27:09;;;;;;;4.35;1.80;;;;;;;26.29;62.41;154270.67;1707430;84;21018;-65
2022/06/11 07:29:47;;;;;;;3.05;1.90;;;;;;;26.31;62.32;154275.91;1707322;83;21049;-65
2022/06/11 07:32:17;;;;;;;2.58;1.87;;;;;;;26.36;61.82;154286.39;1707385;83;21069;-65
2022/06/11 07:34:44;;;;;;;3.95;2.08;;;;;;;26.40;61.90;154296.88;1707195;83;21140;-65
2022/06/11 07:37:11;;;;;;;3.50;2.08;;;;;;;26.42;61.87;154302.16;1707486;84;20935;-64
2022/06/11 07:39:38;;;;;;;3.02;1.80;;;;;;;26.41;61.57;154299.48;1707227;83;21432;-64
2022/06/11 07:42:07;;;;;;;3.72;2.22;;;;;;;26.41;60.90;154299.48;1707192;83;21002;-66
2022/06/11 07:44:36;;;;;;;4.17;2.20;;;;;;;26.40;61.10;154296.88;1707364;84;21077;-65
2022/06/11 07:47:04;;;;;;;2.72;1.92;;;;;;;26.35;61.14;154285.11;1707315;83;21236;-66
2022/06/11 07:49:32;;;;;;;3.27;1.80;;;;;;;26.26;61.80;154262.81;1707132;83;21015;-65
2022/06/11 07:52:18;;;;;;;3.65;1.62;;;;;;;26.28;61.93;154268.06;1707524;83;21463;-66
2022/06/11 07:54:45;;;;;;;3.02;2.02;;;;;;;26.26;61.86;154262.81;1674431;84;21049;-65
2022/06/11 07:57:14;;;;;;;3.55;1.95;;;;;;;26.17;62.22;154240.53;1674113;85;21005;-64
2022/06/11 07:59:42;;;;;;;4.42;2.25;;;;;;;26.14;62.88;154231.28;1673800;84;21228;-64
2022/06/11 08:02:09;;;;;;;5.60;1.85;;;;;;;26.15;63.25;154235.23;1673935;85;21122;-64
2022/06/11 08:04:37;;;;;;;3.85;1.87;;;;;;;26.17;63.36;154240.53;1673913;85;21033;-65
2022/06/11 08:07:04;;;;;;;4.67;2.60;;;;;;;26.22;63.33;154251.00;1673999;84;21541;-65
2022/06/11 08:09:33;;;;;;;4.12;2.00;;;;;;;26.19;63.42;154244.44;1673926;84;21103;-64
2022/06/11 08:12:01;;;;;;;3.40;2.30;;;;;;;26.17;63.48;154240.53;1673966;84;21307;-64
2022/06/11 08:14:28;;;;;;;6.37;2.08;;;;;;;26.17;63.62;154240.53;1673923;85;21471;-64
2022/06/11 08:16:56;;;;;;;4.22;2.08;;;;;;;26.16;63.46;154236.52;1674136;84;21084;-64
2022/06/11 08:19:23;;;;;;;4.53;1.95;;;;;;;26.15;63.28;154233.91;1673931;85;21048;-64
2022/06/11 08:21:50;;;;;;;2.40;1.80;;;;;;;26.08;63.12;154216.84;1674004;85;21013;-64
2022/06/11 08:24:17;;;;;;;3.37;2.00;;;;;;;26.05;63.24;154209.00;1674145;84;21263;-64
2022/06/11 08:26:46;;;;;;;3.45;1.70;;;;;;;26.06;63.44;154210.33;1673843;84;21041;-64
2022/06/11 08:29:13;;;;;;;4.25;2.12;;;;;;;26.07;63.31;154214.23;1673859;85;21033;-64
2022/06/11 08:31:41;;;;;;;3.00;2.05;;;;;;;26.03;63.01;154205.09;1673956;84;21399;-64
2022/06/11 08:34:09;;;;;;;2.47;1.65;;;;;;;25.97;63.13;154189.33;1674092;85;21497;-65
2022/06/11 08:36:37;;;;;;;3.12;2.35;;;;;;;25.94;63.32;154180.19;1674074;85;21521;-65
2022/06/11 08:39:05;;;;;;;2.47;1.90;;;;;;;25.90;62.31;154171.00;1673915;84;21115;-65
2022/06/11 08:41:35;;;;;;;5.28;1.80;;;;;;;25.80;62.44;154144.80;1673982;85;21512;-64
2022/06/11 08:44:12;;;;;;;2.20;1.87;;;;;;;25.72;63.03;154126.42;1674234;85;21008;-64
2022/06/11 08:46:42;;;;;;;3.10;2.00;;;;;;;25.71;63.08;154123.81;1674040;85;21072;-65
2022/06/11 08:49:23;;;;;;;2.87;2.00;;;;;;;25.76;62.61;154135.61;1674239;85;21790;-64
2022/06/11 08:51:57;;;;;;;3.50;1.90;;;;;;;25.81;62.72;154147.42;1661737;85;21143;-64
2022/06/11 08:54:27;;;;;;;;;;;;;;;25.84;62.27;154156.56;1689856;84;21068;-58
2022/06/11 08:57:06;;;;;;;1.87;1.72;;;;;;;25.88;62.51;154165.75;1664245;84;20194;-58
2022/06/11 09:00:06;;;;;;;5.00;1.90;;;;;;;25.89;62.29;154169.70;1691624;84;21090;-58
2022/06/11 09:02:59;;;;;;;2.45;1.90;;;;;;;25.93;60.90;154178.84;1691464;84;21245;-58
2022/06/11 09:06:00;;;;;;;5.95;1.87;;;;;;;25.98;61.54;154192.00;1691415;83;21091;-58
2022/06/11 09:09:04;;;;;;;2.77;1.75;;;;;;;25.99;62.30;154194.61;1691297;84;21024;-58
2022/06/11 09:11:53;;;;;;;2.08;1.80;;;;;;;26.09;61.80;154218.19;1691319;84;21067;-58
2022/06/11 09:14:57;;;;;;;3.00;1.70;;;;;;;26.13;61.91;154228.66;1691523;84;21469;-58
2022/06/11 09:17:51;;;;;;;3.62;1.77;;;;;;;26.17;61.47;154239.19;1690781;84;21249;-59
2022/06/11 09:20:39;;;;;;;2.30;1.72;;;;;;;26.16;59.86;154236.52;1657702;84;21060;-57
2022/06/11 09:23:17;;;;;;;2.47;1.65;;;;;;;26.14;59.44;154232.63;1689906;84;21072;-58
2022/06/11 09:26:05;;;;;;;3.77;1.60;;;;;;;26.11;58.73;154223.42;1691490;84;21076;-58
2022/06/11 09:29:03;;;;;;;3.58;1.92;;;;;;;26.09;58.77;154218.19;1691633;84;21127;-58
2022/06/11 09:31:42;;;;;;;2.35;1.80;;;;;;;25.99;58.72;154194.61;1691508;84;21541;-58
2022/06/11 09:34:48;;;;;;;2.40;2.00;;;;;;;25.93;59.27;154177.56;1691649;84;20977;-63
2022/06/11 09:37:19;;;;;;;3.72;1.80;;;;;;;25.93;59.28;154178.84;1691650;84;21036;-64
2022/06/11 09:40:03;;;;;;;3.65;1.80;;;;;;;25.93;59.40;154178.84;1691459;83;21115;-64
2022/06/11 09:42:55;;;;;;;;;;;;;;;25.95;60.14;154184.09;1643256;84;21084;-63
2022/06/11 09:46:03;;;;;;;4.17;1.90;;;;;;;26.03;60.22;154203.75;1691755;84;21043;-63
2022/06/11 09:48:47;;;;;;;4.50;2.02;;;;;;;25.97;60.62;154189.33;1691577;84;21055;-64
2022/06/11 09:51:26;;;;;;;3.25;1.87;;;;;;;25.97;60.79;154188.05;1691656;84;21089;-63
2022/06/11 09:54:27;;;;;;;2.65;2.00;;;;;;;25.98;61.42;154190.66;1691380;84;21012;-58
2022/06/11 09:57:30;;;;;;;4.35;2.02;;;;;;;26.06;61.54;154210.33;1691658;84;21095;-58
2022/06/11 10:00:19;;;;;;;3.10;2.02;;;;;;;26.12;61.47;154226.05;1691469;84;21247;-59
2022/06/11 10:05:52;;;;;;;3.52;1.75;;;;;;;26.22;61.05;154251.00;1691545;84;21060;-57
2022/06/11 10:08:49;;;;;;;3.42;1.77;;;;;;;26.25;61.34;154260.20;1691583;83;21462;-58
2022/06/11 10:11:35;;;;;;;3.30;1.80;;;;;;;26.30;61.62;154273.30;1691451;84;21004;-58
2022/06/11 10:14:28;;;;;;;3.90;1.90;;;;;;;26.35;61.95;154283.77;1691724;84;21414;-59
2022/06/11 10:17:16;;;;;;;4.58;1.95;;;;;;;26.39;61.35;154294.25;1691440;84;21043;-57
2022/06/11 10:20:05;;;;;;;2.33;1.40;;;;;;;26.44;60.97;154307.41;1682588;83;21118;-58
2022/06/11 10:23:06;;;;;;;3.85;1.90;;;;;;;26.50;60.84;154323.12;1691595;83;21513;-58
2022/06/11 10:25:38;;;;;;;2.35;1.92;;;;;;;26.48;60.94;154316.55;1691568;84;21143;-58
2022/06/11 10:28:40;;;;;;;4.92;1.90;;;;;;;26.44;61.29;154308.69;1691252;84;21319;-58
2022/06/11 10:31:12;;;;;;;3.85;1.85;;;;;;;26.46;61.44;154312.64;1664174;84;21549;-58
2022/06/11 10:33:48;;;;;;;3.50;1.80;;;;;;;26.37;61.73;154290.34;1691691;83;21071;-59
2022/06/11 10:36:25;;;;;;;2.87;1.80;;;;;;;26.31;62.27;154275.91;1691555;84;21084;-58
2022/06/11 10:39:06;;;;;;;2.83;1.80;;;;;;;26.30;62.40;154271.97;1691598;84;21016;-57
2022/06/11 10:41:49;;;;;;;4.62;2.00;;;;;;;26.30;62.28;154273.30;1691605;84;20964;-58
2022/06/11 10:44:40;;;;;;;2.98;1.90;;;;;;;26.31;62.78;154275.91;1691531;83;21056;-58
2022/06/11 10:47:37;;;;;;;3.27;1.80;;;;;;;26.31;62.85;154275.91;1691554;84;21130;-58
2022/06/11 10:50:13;;;;;;;2.75;1.80;;;;;;;26.31;62.17;154275.91;1691557;84;21469;-58
2022/06/11 10:52:54;;;;;;;3.10;2.10;;;;;;;26.31;61.70;154275.91;1691461;84;21080;-59
2022/06/11 10:55:52;;;;;;;5.20;2.08;;;;;;;26.35;61.57;154283.77;1691548;84;21311;-58
2022/06/11 10:58:30;;;;;;;3.92;2.12;;;;;;;26.33;61.20;154279.88;1691515;83;20964;-58
2022/06/11 11:01:07;;;;;;;3.95;2.10;;;;;;;26.26;61.80;154262.81;1691230;84;21102;-58
2022/06/11 11:03:57;;;;;;;3.92;2.10;;;;;;;26.22;62.28;154252.34;1691305;84;21024;-58
2022/06/11 11:06:34;;;;;;;4.25;2.27;;;;;;;26.20;59.71;154247.09;1691791;84;21072;-58
2022/06/11 11:09:14;;;;;;;6.45;2.98;;;;;;;26.23;60.67;154254.95;1691406;84;21245;-58
2022/06/11 11:11:46;;;;;;;2.22;1.90;;;;;;;26.30;60.78;154271.97;1691211;83;21247;-58
2022/06/11 11:14:21;;;;;;;3.08;2.02;;;;;;;26.35;59.97;154283.77;1691471;83;21004;-57
2022/06/11 11:16:51;;;;;;;2.35;1.87;;;;;;;26.39;59.01;154294.25;1691154;84;21020;-57
2022/06/11 11:19:36;;;;;;;4.12;2.05;;;;;;;26.44;59.27;154307.41;1691620;84;20944;-57
2022/06/11 11:22:16;;;;;;;2.70;2.05;;;;;;;26.49;59.44;154320.50;1662821;84;21265;-58
2022/06/11 11:24:50;;;;;;;2.65;2.00;;;;;;;26.55;59.64;154336.22;1691410;84;21001;-58
2022/06/11 11:27:25;;;;;;;2.15;1.92;;;;;;;26.58;58.92;154344.08;1691726;84;21000;-58
2022/06/11 11:29:57;;;;;;;1.98;1.70;;;;;;;26.58;57.89;154344.08;1690907;84;21023;-57
2022/06/11 11:32:37;;;;;;;4.87;1.87;;;;;;;26.55;57.08;154336.22;1691502;84;21103;-58
2022/06/11 11:35:24;;;;;;;3.22;2.10;;;;;;;26.54;57.38;154332.31;1691484;84;21238;-58
2022/06/11 11:38:13;;;;;;;3.55;1.90;;;;;;;26.57;57.81;154341.45;1691355;84;21032;-58
2022/06/11 11:40:59;;;;;;;3.20;2.00;;;;;;;26.59;55.75;154346.70;1691469;84;21438;-59
2022/06/11 11:43:36;;;;;;;2.67;1.65;;;;;;;26.66;55.97;154362.47;1691722;84;20992;-58
2022/06/11 11:46:07;;;;;;;3.35;1.75;;;;;;;26.74;54.28;154383.44;1691487;84;21442;-59
2022/06/11 11:48:48;;;;;;;2.47;1.90;;;;;;;26.81;54.05;154401.77;1691411;84;21238;-57
2022/06/11 11:51:35;;;;;;;1.45;1.32;;;;;;;26.84;52.50;154408.34;1691387;83;21453;-58
2022/06/11 11:54:17;;;;;;;3.02;1.90;;;;;;;26.81;50.51;154400.48;1688358;83;21013;-58
2022/06/11 11:56:55;;;;;;;2.05;1.50;;;;;;;26.76;50.64;154387.39;1673960;85;21078;-58
2022/06/11 11:59:38;;;;;;;1.82;1.70;;;;;;;26.72;50.46;154378.19;1673997;85;21123;-58
2022/06/11 12:02:25;;;;;;;2.52;1.82;;;;;;;26.68;50.00;154369.00;1673908;84;21257;-58